sensor_id;sensor_type;location;lat;lon;timestamp;temperature;humidity
74968;SHT30;63523;51.880;12.630;2023-12-20T00:01:37;6.03;87.60
74968;SHT30;63523;51.880;12.630;2023-12-20T00:04:03;6.00;86.68
74968;SHT30;63523;51.880;12.630;2023-12-20T00:06:29;6.00;87.47
74968;SHT30;63523;51.880;12.630;2023-12-20T00:08:54;6.07;86.83
74968;SHT30;63523;51.880;12.630;2023-12-20T00:11:20;6.03;86.46
74968;SHT30;63523;51.880;12.630;2023-12-20T00:13:45;5.98;87.30
74968;SHT30;63523;51.880;12.630;2023-12-20T00:16:11;6.10;87.06
74968;SHT30;63523;51.880;12.630;2023-12-20T00:18:36;6.08;86.91
74968;SHT30;63523;51.880;12.630;2023-12-20T00:21:01;6.04;86.93
74968;SHT30;63523;51.880;12.630;2023-12-20T00:23:27;6.08;87.50
74968;SHT30;63523;51.880;12.630;2023-12-20T00:25:52;6.15;87.31
74968;SHT30;63523;51.880;12.630;2023-12-20T00:28:17;6.14;87.08
74968;SHT30;63523;51.880;12.630;2023-12-20T00:30:43;6.17;86.92
74968;SHT30;63523;51.880;12.630;2023-12-20T00:33:09;6.13;86.81
74968;SHT30;63523;51.880;12.630;2023-12-20T00:35:34;6.17;87.04
74968;SHT30;63523;51.880;12.630;2023-12-20T00:37:59;6.14;86.36
74968;SHT30;63523;51.880;12.630;2023-12-20T00:40:25;6.08;86.72
74968;SHT30;63523;51.880;12.630;2023-12-20T00:42:50;6.04;86.49
74968;SHT30;63523;51.880;12.630;2023-12-20T00:45:15;5.94;86.88
74968;SHT30;63523;51.880;12.630;2023-12-20T00:47:41;5.98;87.68
74968;SHT30;63523;51.880;12.630;2023-12-20T00:50:07;6.00;87.04
74968;SHT30;63523;51.880;12.630;2023-12-20T00:52:32;6.13;87.54
74968;SHT30;63523;51.880;12.630;2023-12-20T00:54:58;5.98;87.06
74968;SHT30;63523;51.880;12.630;2023-12-20T00:57:23;6.07;87.66
74968;SHT30;63523;51.880;12.630;2023-12-20T00:59:48;6.01;86.42
74968;SHT30;63523;51.880;12.630;2023-12-20T01:02:14;5.96;87.73
74968;SHT30;63523;51.880;12.630;2023-12-20T01:04:39;6.08;87.31
74968;SHT30;63523;51.880;12.630;2023-12-20T01:07:04;6.11;87.06
74968;SHT30;63523;51.880;12.630;2023-12-20T01:09:30;6.10;87.35
74968;SHT30;63523;51.880;12.630;2023-12-20T01:11:55;6.08;87.36
74968;SHT30;63523;51.880;12.630;2023-12-20T01:14:21;6.08;86.73
74968;SHT30;63523;51.880;12.630;2023-12-20T01:16:46;6.07;87.30
74968;SHT30;63523;51.880;12.630;2023-12-20T01:19:13;6.03;87.47
74968;SHT30;63523;51.880;12.630;2023-12-20T01:21:39;6.06;87.10
74968;SHT30;63523;51.880;12.630;2023-12-20T01:24:04;6.04;87.77
74968;SHT30;63523;51.880;12.630;2023-12-20T01:26:30;6.08;86.52
74968;SHT30;63523;51.880;12.630;2023-12-20T01:28:55;6.06;86.93
74968;SHT30;63523;51.880;12.630;2023-12-20T01:31:20;6.07;87.70
74968;SHT30;63523;51.880;12.630;2023-12-20T01:33:46;6.18;87.34
74968;SHT30;63523;51.880;12.630;2023-12-20T01:36:11;6.17;86.98
74968;SHT30;63523;51.880;12.630;2023-12-20T01:38:37;6.22;86.72
74968;SHT30;63523;51.880;12.630;2023-12-20T01:41:02;6.24;86.93
74968;SHT30;63523;51.880;12.630;2023-12-20T01:43:29;6.15;86.26
74968;SHT30;63523;51.880;12.630;2023-12-20T01:45:55;6.18;87.37
74968;SHT30;63523;51.880;12.630;2023-12-20T01:48:22;6.18;86.30
74968;SHT30;63523;51.880;12.630;2023-12-20T01:50:48;6.15;86.97
74968;SHT30;63523;51.880;12.630;2023-12-20T01:53:13;6.04;86.43
74968;SHT30;63523;51.880;12.630;2023-12-20T01:55:40;6.14;87.44
74968;SHT30;63523;51.880;12.630;2023-12-20T01:58:07;6.17;86.72
74968;SHT30;63523;51.880;12.630;2023-12-20T02:00:34;6.14;87.25
74968;SHT30;63523;51.880;12.630;2023-12-20T02:03:03;6.04;87.13
74968;SHT30;63523;51.880;12.630;2023-12-20T02:05:33;6.03;87.46
74968;SHT30;63523;51.880;12.630;2023-12-20T02:08:00;6.04;87.60
74968;SHT30;63523;51.880;12.630;2023-12-20T02:10:26;6.08;87.59
74968;SHT30;63523;51.880;12.630;2023-12-20T02:12:51;6.17;86.84
74968;SHT30;63523;51.880;12.630;2023-12-20T02:15:17;6.08;86.87
74968;SHT30;63523;51.880;12.630;2023-12-20T02:17:43;6.14;87.13
74968;SHT30;63523;51.880;12.630;2023-12-20T02:20:09;6.11;86.28
74968;SHT30;63523;51.880;12.630;2023-12-20T02:22:35;6.11;86.91
74968;SHT30;63523;51.880;12.630;2023-12-20T02:25:00;6.11;86.87
74968;SHT30;63523;51.880;12.630;2023-12-20T02:27:25;6.11;87.42
74968;SHT30;63523;51.880;12.630;2023-12-20T02:29:51;6.06;86.78
74968;SHT30;63523;51.880;12.630;2023-12-20T02:32:17;6.06;87.10
74968;SHT30;63523;51.880;12.630;2023-12-20T02:34:42;6.10;86.32
74968;SHT30;63523;51.880;12.630;2023-12-20T02:37:08;6.13;87.26
74968;SHT30;63523;51.880;12.630;2023-12-20T02:39:33;6.22;86.91
74968;SHT30;63523;51.880;12.630;2023-12-20T02:41:59;6.20;86.30
74968;SHT30;63523;51.880;12.630;2023-12-20T02:44:24;6.13;87.01
74968;SHT30;63523;51.880;12.630;2023-12-20T02:46:49;6.14;86.95
74968;SHT30;63523;51.880;12.630;2023-12-20T02:49:15;6.21;86.44
74968;SHT30;63523;51.880;12.630;2023-12-20T02:51:40;6.11;86.30
74968;SHT30;63523;51.880;12.630;2023-12-20T02:54:06;6.01;87.29
74968;SHT30;63523;51.880;12.630;2023-12-20T02:56:32;6.06;87.50
74968;SHT30;63523;51.880;12.630;2023-12-20T02:58:58;6.11;87.18
74968;SHT30;63523;51.880;12.630;2023-12-20T03:01:23;6.07;87.15
74968;SHT30;63523;51.880;12.630;2023-12-20T03:03:48;6.08;86.94
74968;SHT30;63523;51.880;12.630;2023-12-20T03:06:17;6.11;86.92
74968;SHT30;63523;51.880;12.630;2023-12-20T03:08:43;6.11;86.95
74968;SHT30;63523;51.880;12.630;2023-12-20T03:11:09;6.07;86.87
74968;SHT30;63523;51.880;12.630;2023-12-20T03:13:34;6.04;87.21
74968;SHT30;63523;51.880;12.630;2023-12-20T03:15:59;6.06;87.43
74968;SHT30;63523;51.880;12.630;2023-12-20T03:18:25;6.06;87.54
74968;SHT30;63523;51.880;12.630;2023-12-20T03:20:50;6.08;87.35
74968;SHT30;63523;51.880;12.630;2023-12-20T03:23:16;6.00;87.03
74968;SHT30;63523;51.880;12.630;2023-12-20T03:25:41;6.01;87.98
74968;SHT30;63523;51.880;12.630;2023-12-20T03:28:06;6.04;87.69
74968;SHT30;63523;51.880;12.630;2023-12-20T03:30:32;6.04;88.01
74968;SHT30;63523;51.880;12.630;2023-12-20T03:32:57;6.03;88.25
74968;SHT30;63523;51.880;12.630;2023-12-20T03:35:22;6.03;88.33
74968;SHT30;63523;51.880;12.630;2023-12-20T03:37:48;6.08;88.81
74968;SHT30;63523;51.880;12.630;2023-12-20T03:40:13;6.06;88.84
74968;SHT30;63523;51.880;12.630;2023-12-20T03:42:38;6.00;88.88
74968;SHT30;63523;51.880;12.630;2023-12-20T03:45:04;6.07;89.21
74968;SHT30;63523;51.880;12.630;2023-12-20T03:47:29;6.07;88.96
74968;SHT30;63523;51.880;12.630;2023-12-20T03:49:55;6.04;88.95
74968;SHT30;63523;51.880;12.630;2023-12-20T03:52:20;6.06;89.11
74968;SHT30;63523;51.880;12.630;2023-12-20T03:54:45;6.08;89.32
74968;SHT30;63523;51.880;12.630;2023-12-20T03:57:11;6.13;88.95
74968;SHT30;63523;51.880;12.630;2023-12-20T03:59:37;6.11;88.96
74968;SHT30;63523;51.880;12.630;2023-12-20T04:02:03;6.18;88.68
74968;SHT30;63523;51.880;12.630;2023-12-20T04:04:28;6.15;88.79
74968;SHT30;63523;51.880;12.630;2023-12-20T04:06:54;6.21;88.70
74968;SHT30;63523;51.880;12.630;2023-12-20T04:09:19;6.17;88.58
74968;SHT30;63523;51.880;12.630;2023-12-20T04:11:44;6.21;88.87
74968;SHT30;63523;51.880;12.630;2023-12-20T04:14:10;6.24;88.57
74968;SHT30;63523;51.880;12.630;2023-12-20T04:16:35;6.17;88.38
74968;SHT30;63523;51.880;12.630;2023-12-20T04:19:00;6.14;88.78
74968;SHT30;63523;51.880;12.630;2023-12-20T04:21:26;6.13;88.62
74968;SHT30;63523;51.880;12.630;2023-12-20T04:23:51;6.08;88.90
74968;SHT30;63523;51.880;12.630;2023-12-20T04:26:16;6.08;88.87
74968;SHT30;63523;51.880;12.630;2023-12-20T04:28:42;6.08;88.73
74968;SHT30;63523;51.880;12.630;2023-12-20T04:31:08;6.04;88.85
74968;SHT30;63523;51.880;12.630;2023-12-20T04:33:33;6.00;89.13
74968;SHT30;63523;51.880;12.630;2023-12-20T04:35:58;6.07;88.75
74968;SHT30;63523;51.880;12.630;2023-12-20T04:38:25;6.03;88.44
74968;SHT30;63523;51.880;12.630;2023-12-20T04:40:50;5.98;88.89
74968;SHT30;63523;51.880;12.630;2023-12-20T04:43:16;6.03;88.61
74968;SHT30;63523;51.880;12.630;2023-12-20T04:45:41;5.93;88.44
74968;SHT30;63523;51.880;12.630;2023-12-20T04:48:06;5.91;88.80
74968;SHT30;63523;51.880;12.630;2023-12-20T04:53:16;5.76;88.98
74968;SHT30;63523;51.880;12.630;2023-12-20T04:55:41;5.73;88.82
74968;SHT30;63523;51.880;12.630;2023-12-20T05:01:11;5.65;88.85
74968;SHT30;63523;51.880;12.630;2023-12-20T05:04:05;5.59;88.89
74968;SHT30;63523;51.880;12.630;2023-12-20T05:06:49;5.51;89.12
74968;SHT30;63523;51.880;12.630;2023-12-20T05:09:41;5.48;89.35
74968;SHT30;63523;51.880;12.630;2023-12-20T05:12:09;5.43;89.30
74968;SHT30;63523;51.880;12.630;2023-12-20T05:14:35;5.36;89.10
74968;SHT30;63523;51.880;12.630;2023-12-20T05:17:09;5.35;89.25
74968;SHT30;63523;51.880;12.630;2023-12-20T05:19:47;5.28;89.17
74968;SHT30;63523;51.880;12.630;2023-12-20T05:22:28;5.23;88.94
74968;SHT30;63523;51.880;12.630;2023-12-20T05:24:53;5.10;88.81
74968;SHT30;63523;51.880;12.630;2023-12-20T05:27:19;5.17;88.50
74968;SHT30;63523;51.880;12.630;2023-12-20T05:29:44;5.10;88.73
74968;SHT30;63523;51.880;12.630;2023-12-20T05:32:10;5.06;88.82
74968;SHT30;63523;51.880;12.630;2023-12-20T05:34:35;5.01;88.85
74968;SHT30;63523;51.880;12.630;2023-12-20T05:37:00;5.01;89.23
74968;SHT30;63523;51.880;12.630;2023-12-20T05:39:26;5.01;89.20
74968;SHT30;63523;51.880;12.630;2023-12-20T05:41:52;5.04;89.19
74968;SHT30;63523;51.880;12.630;2023-12-20T05:44:17;5.06;88.90
74968;SHT30;63523;51.880;12.630;2023-12-20T05:46:42;5.00;88.69
74968;SHT30;63523;51.880;12.630;2023-12-20T05:49:08;4.98;88.91
74968;SHT30;63523;51.880;12.630;2023-12-20T05:51:33;4.91;88.96
74968;SHT30;63523;51.880;12.630;2023-12-20T05:53:58;4.87;88.77
74968;SHT30;63523;51.880;12.630;2023-12-20T05:56:24;4.80;88.86
74968;SHT30;63523;51.880;12.630;2023-12-20T05:58:49;4.75;89.01
74968;SHT30;63523;51.880;12.630;2023-12-20T06:01:15;4.66;89.06
74968;SHT30;63523;51.880;12.630;2023-12-20T06:03:42;4.66;89.16
74968;SHT30;63523;51.880;12.630;2023-12-20T06:06:08;4.66;88.61
74968;SHT30;63523;51.880;12.630;2023-12-20T06:08:33;4.62;88.82
74968;SHT30;63523;51.880;12.630;2023-12-20T06:10:59;4.63;88.47
74968;SHT30;63523;51.880;12.630;2023-12-20T06:13:24;4.58;88.52
74968;SHT30;63523;51.880;12.630;2023-12-20T06:15:49;4.49;88.49
74968;SHT30;63523;51.880;12.630;2023-12-20T06:18:15;4.49;88.57
74968;SHT30;63523;51.880;12.630;2023-12-20T06:20:40;4.41;88.54
74968;SHT30;63523;51.880;12.630;2023-12-20T06:23:05;4.34;88.54
74968;SHT30;63523;51.880;12.630;2023-12-20T06:25:30;4.38;88.32
74968;SHT30;63523;51.880;12.630;2023-12-20T06:27:56;4.41;87.78
74968;SHT30;63523;51.880;12.630;2023-12-20T06:30:21;4.34;87.60
74968;SHT30;63523;51.880;12.630;2023-12-20T06:32:46;4.24;87.80
74968;SHT30;63523;51.880;12.630;2023-12-20T06:35:12;4.24;88.25
74968;SHT30;63523;51.880;12.630;2023-12-20T06:37:38;4.28;88.48
74968;SHT30;63523;51.880;12.630;2023-12-20T06:40:08;4.28;88.15
74968;SHT30;63523;51.880;12.630;2023-12-20T06:42:33;4.30;88.01
74968;SHT30;63523;51.880;12.630;2023-12-20T06:44:58;4.37;88.24
74968;SHT30;63523;51.880;12.630;2023-12-20T06:47:24;4.37;88.05
74968;SHT30;63523;51.880;12.630;2023-12-20T06:49:49;4.46;88.31
74968;SHT30;63523;51.880;12.630;2023-12-20T06:52:14;4.59;87.59
74968;SHT30;63523;51.880;12.630;2023-12-20T06:54:40;4.63;87.59
74968;SHT30;63523;51.880;12.630;2023-12-20T06:57:05;4.68;87.46
74968;SHT30;63523;51.880;12.630;2023-12-20T06:59:30;4.70;87.32
74968;SHT30;63523;51.880;12.630;2023-12-20T07:01:55;4.68;87.30
74968;SHT30;63523;51.880;12.630;2023-12-20T07:04:21;4.72;87.94
74968;SHT30;63523;51.880;12.630;2023-12-20T07:06:50;4.72;87.64
74968;SHT30;63523;51.880;12.630;2023-12-20T07:09:21;4.75;87.41
74968;SHT30;63523;51.880;12.630;2023-12-20T07:11:47;4.75;87.40
74968;SHT30;63523;51.880;12.630;2023-12-20T07:14:13;4.81;87.80
74968;SHT30;63523;51.880;12.630;2023-12-20T07:16:38;4.83;87.66
74968;SHT30;63523;51.880;12.630;2023-12-20T07:19:03;4.91;87.63
74968;SHT30;63523;51.880;12.630;2023-12-20T07:21:28;4.98;87.61
74968;SHT30;63523;51.880;12.630;2023-12-20T07:23:54;5.06;87.47
74968;SHT30;63523;51.880;12.630;2023-12-20T07:26:19;5.07;87.09
74968;SHT30;63523;51.880;12.630;2023-12-20T07:28:44;5.08;86.84
74968;SHT30;63523;51.880;12.630;2023-12-20T07:31:09;5.06;87.19
74968;SHT30;63523;51.880;12.630;2023-12-20T07:33:35;5.13;87.12
74968;SHT30;63523;51.880;12.630;2023-12-20T07:36:00;5.11;86.79
74968;SHT30;63523;51.880;12.630;2023-12-20T07:38:26;5.10;87.37
74968;SHT30;63523;51.880;12.630;2023-12-20T07:40:51;5.17;86.95
74968;SHT30;63523;51.880;12.630;2023-12-20T07:43:16;5.17;86.90
74968;SHT30;63523;51.880;12.630;2023-12-20T07:45:42;5.13;86.75
74968;SHT30;63523;51.880;12.630;2023-12-20T07:48:07;5.14;87.08
74968;SHT30;63523;51.880;12.630;2023-12-20T07:50:33;5.17;87.40
74968;SHT30;63523;51.880;12.630;2023-12-20T07:52:58;5.24;86.71
74968;SHT30;63523;51.880;12.630;2023-12-20T07:55:25;5.27;86.61
74968;SHT30;63523;51.880;12.630;2023-12-20T07:57:51;5.36;86.71
74968;SHT30;63523;51.880;12.630;2023-12-20T08:00:17;5.32;86.41
74968;SHT30;63523;51.880;12.630;2023-12-20T08:02:42;5.24;86.77
74968;SHT30;63523;51.880;12.630;2023-12-20T08:05:07;5.30;87.23
74968;SHT30;63523;51.880;12.630;2023-12-20T08:07:33;5.35;87.44
74968;SHT30;63523;51.880;12.630;2023-12-20T08:09:58;5.42;86.54
74968;SHT30;63523;51.880;12.630;2023-12-20T08:12:23;5.38;86.52
74968;SHT30;63523;51.880;12.630;2023-12-20T08:14:51;5.32;86.83
74968;SHT30;63523;51.880;12.630;2023-12-20T08:17:16;5.34;86.96
74968;SHT30;63523;51.880;12.630;2023-12-20T08:19:43;5.32;86.87
74968;SHT30;63523;51.880;12.630;2023-12-20T08:22:08;5.34;87.09
74968;SHT30;63523;51.880;12.630;2023-12-20T08:24:33;5.45;87.03
74968;SHT30;63523;51.880;12.630;2023-12-20T08:26:59;5.45;86.80
74968;SHT30;63523;51.880;12.630;2023-12-20T08:29:24;5.60;86.88
74968;SHT30;63523;51.880;12.630;2023-12-20T08:31:53;5.67;85.96
74968;SHT30;63523;51.880;12.630;2023-12-20T08:34:19;5.67;86.09
74968;SHT30;63523;51.880;12.630;2023-12-20T08:36:44;5.66;86.60
74968;SHT30;63523;51.880;12.630;2023-12-20T08:39:09;5.59;86.21
74968;SHT30;63523;51.880;12.630;2023-12-20T08:41:35;5.62;86.59
74968;SHT30;63523;51.880;12.630;2023-12-20T08:44:01;5.60;86.72
74968;SHT30;63523;51.880;12.630;2023-12-20T08:46:27;5.76;86.35
74968;SHT30;63523;51.880;12.630;2023-12-20T08:48:52;5.81;85.79
74968;SHT30;63523;51.880;12.630;2023-12-20T08:51:17;5.74;86.64
74968;SHT30;63523;51.880;12.630;2023-12-20T08:53:44;5.77;86.27
74968;SHT30;63523;51.880;12.630;2023-12-20T08:56:10;5.71;86.90
74968;SHT30;63523;51.880;12.630;2023-12-20T08:58:35;5.76;85.91
74968;SHT30;63523;51.880;12.630;2023-12-20T09:01:01;5.76;86.29
74968;SHT30;63523;51.880;12.630;2023-12-20T09:03:26;5.76;87.03
74968;SHT30;63523;51.880;12.630;2023-12-20T09:05:52;5.81;86.72
74968;SHT30;63523;51.880;12.630;2023-12-20T09:08:17;5.81;86.76
74968;SHT30;63523;51.880;12.630;2023-12-20T09:10:42;5.91;86.25
74968;SHT30;63523;51.880;12.630;2023-12-20T09:13:09;5.97;85.80
74968;SHT30;63523;51.880;12.630;2023-12-20T09:15:34;6.07;85.55
74968;SHT30;63523;51.880;12.630;2023-12-20T09:18:00;6.14;86.06
74968;SHT30;63523;51.880;12.630;2023-12-20T09:20:25;6.13;86.43
74968;SHT30;63523;51.880;12.630;2023-12-20T09:22:52;6.21;85.82
74968;SHT30;63523;51.880;12.630;2023-12-20T09:25:17;6.22;85.09
74968;SHT30;63523;51.880;12.630;2023-12-20T09:27:43;6.28;85.72
74968;SHT30;63523;51.880;12.630;2023-12-20T09:30:08;6.34;85.44
74968;SHT30;63523;51.880;12.630;2023-12-20T09:32:34;6.21;85.63
74968;SHT30;63523;51.880;12.630;2023-12-20T09:34:59;6.31;85.76
74968;SHT30;63523;51.880;12.630;2023-12-20T09:37:26;6.36;85.98
74968;SHT30;63523;51.880;12.630;2023-12-20T09:39:52;6.50;85.30
74968;SHT30;63523;51.880;12.630;2023-12-20T09:42:24;6.41;85.20
74968;SHT30;63523;51.880;12.630;2023-12-20T09:44:50;6.38;85.55
74968;SHT30;63523;51.880;12.630;2023-12-20T09:47:17;6.50;85.59
74968;SHT30;63523;51.880;12.630;2023-12-20T09:49:45;6.62;85.03
74968;SHT30;63523;51.880;12.630;2023-12-20T09:52:11;6.62;85.49
74968;SHT30;63523;51.880;12.630;2023-12-20T09:54:38;6.73;85.36
74968;SHT30;63523;51.880;12.630;2023-12-20T09:57:04;6.81;85.70
74968;SHT30;63523;51.880;12.630;2023-12-20T09:59:29;7.05;85.95
74968;SHT30;63523;51.880;12.630;2023-12-20T10:01:55;7.19;84.46
74968;SHT30;63523;51.880;12.630;2023-12-20T10:04:22;7.25;83.97
74968;SHT30;63523;51.880;12.630;2023-12-20T10:06:47;7.24;83.26
74968;SHT30;63523;51.880;12.630;2023-12-20T10:09:13;7.15;82.96
74968;SHT30;63523;51.880;12.630;2023-12-20T10:11:39;7.05;83.34
74968;SHT30;63523;51.880;12.630;2023-12-20T10:14:07;6.93;82.32
74968;SHT30;63523;51.880;12.630;2023-12-20T10:16:33;6.94;83.43
74968;SHT30;63523;51.880;12.630;2023-12-20T10:18:59;6.87;83.75
74968;SHT30;63523;51.880;12.630;2023-12-20T10:21:25;6.77;82.95
74968;SHT30;63523;51.880;12.630;2023-12-20T10:23:52;6.69;83.41
74968;SHT30;63523;51.880;12.630;2023-12-20T10:26:22;6.75;83.86
74968;SHT30;63523;51.880;12.630;2023-12-20T10:28:55;6.75;83.26
74968;SHT30;63523;51.880;12.630;2023-12-20T10:31:28;6.68;83.69
74968;SHT30;63523;51.880;12.630;2023-12-20T10:33:55;6.76;83.63
74968;SHT30;63523;51.880;12.630;2023-12-20T10:36:20;6.75;83.40
74968;SHT30;63523;51.880;12.630;2023-12-20T10:38:49;7.01;83.24
74968;SHT30;63523;51.880;12.630;2023-12-20T10:41:15;7.08;82.27
74968;SHT30;63523;51.880;12.630;2023-12-20T10:43:45;7.08;81.59
74968;SHT30;63523;51.880;12.630;2023-12-20T10:46:11;7.07;82.02
74968;SHT30;63523;51.880;12.630;2023-12-20T10:48:37;7.05;82.37
74968;SHT30;63523;51.880;12.630;2023-12-20T10:51:04;7.03;82.01
74968;SHT30;63523;51.880;12.630;2023-12-20T10:53:30;7.04;81.93
74968;SHT30;63523;51.880;12.630;2023-12-20T10:55:58;7.07;82.00
74968;SHT30;63523;51.880;12.630;2023-12-20T10:58:25;7.01;82.78
74968;SHT30;63523;51.880;12.630;2023-12-20T11:00:59;7.09;82.36
74968;SHT30;63523;51.880;12.630;2023-12-20T11:03:25;7.19;81.45
74968;SHT30;63523;51.880;12.630;2023-12-20T11:06:05;7.24;81.39
74968;SHT30;63523;51.880;12.630;2023-12-20T11:08:58;7.28;80.31
74968;SHT30;63523;51.880;12.630;2023-12-20T11:11:30;7.22;80.42
74968;SHT30;63523;51.880;12.630;2023-12-20T11:14:02;7.21;80.76
74968;SHT30;63523;51.880;12.630;2023-12-20T11:16:31;7.18;80.65
74968;SHT30;63523;51.880;12.630;2023-12-20T11:18:57;7.19;80.73
74968;SHT30;63523;51.880;12.630;2023-12-20T11:21:22;7.32;80.26
74968;SHT30;63523;51.880;12.630;2023-12-20T11:23:47;7.31;80.28
74968;SHT30;63523;51.880;12.630;2023-12-20T11:26:16;7.34;79.59
74968;SHT30;63523;51.880;12.630;2023-12-20T11:28:42;7.36;78.69
74968;SHT30;63523;51.880;12.630;2023-12-20T11:31:07;7.29;80.13
74968;SHT30;63523;51.880;12.630;2023-12-20T11:33:37;7.21;79.97
74968;SHT30;63523;51.880;12.630;2023-12-20T11:36:03;7.15;79.42
74968;SHT30;63523;51.880;12.630;2023-12-20T11:38:37;7.09;79.34
74968;SHT30;63523;51.880;12.630;2023-12-20T11:41:05;7.11;79.47
74968;SHT30;63523;51.880;12.630;2023-12-20T11:43:38;7.12;79.07
74968;SHT30;63523;51.880;12.630;2023-12-20T11:46:05;7.07;79.42
74968;SHT30;63523;51.880;12.630;2023-12-20T11:48:31;7.11;78.60
74968;SHT30;63523;51.880;12.630;2023-12-20T11:50:57;7.07;79.17
74968;SHT30;63523;51.880;12.630;2023-12-20T11:53:22;7.08;79.34
74968;SHT30;63523;51.880;12.630;2023-12-20T11:55:49;7.04;79.28
74968;SHT30;63523;51.880;12.630;2023-12-20T11:58:14;7.15;78.12
74968;SHT30;63523;51.880;12.630;2023-12-20T12:00:41;7.11;78.53
74968;SHT30;63523;51.880;12.630;2023-12-20T12:03:07;7.04;79.37
74968;SHT30;63523;51.880;12.630;2023-12-20T12:05:33;7.16;78.26
74968;SHT30;63523;51.880;12.630;2023-12-20T12:07:58;7.11;78.64
74968;SHT30;63523;51.880;12.630;2023-12-20T12:10:23;7.11;78.35
74968;SHT30;63523;51.880;12.630;2023-12-20T12:12:49;7.11;78.30
74968;SHT30;63523;51.880;12.630;2023-12-20T12:15:14;7.21;77.85
74968;SHT30;63523;51.880;12.630;2023-12-20T12:17:40;7.18;77.46
74968;SHT30;63523;51.880;12.630;2023-12-20T12:20:06;7.32;77.21
74968;SHT30;63523;51.880;12.630;2023-12-20T12:22:33;7.22;77.58
74968;SHT30;63523;51.880;12.630;2023-12-20T12:25:11;7.32;76.80
74968;SHT30;63523;51.880;12.630;2023-12-20T12:27:39;7.25;77.54
74968;SHT30;63523;51.880;12.630;2023-12-20T12:30:05;7.25;77.15
74968;SHT30;63523;51.880;12.630;2023-12-20T12:32:34;7.26;77.10
74968;SHT30;63523;51.880;12.630;2023-12-20T12:35:00;7.32;76.39
74968;SHT30;63523;51.880;12.630;2023-12-20T12:37:25;7.38;76.24
74968;SHT30;63523;51.880;12.630;2023-12-20T12:39:53;7.38;76.85
74968;SHT30;63523;51.880;12.630;2023-12-20T12:42:18;7.39;76.68
74968;SHT30;63523;51.880;12.630;2023-12-20T12:44:44;7.43;76.21
74968;SHT30;63523;51.880;12.630;2023-12-20T12:47:09;7.36;77.35
74968;SHT30;63523;51.880;12.630;2023-12-20T12:49:34;7.46;76.92
74968;SHT30;63523;51.880;12.630;2023-12-20T12:52:00;7.42;76.61
74968;SHT30;63523;51.880;12.630;2023-12-20T12:54:25;7.52;76.24
74968;SHT30;63523;51.880;12.630;2023-12-20T12:56:50;7.51;76.24
74968;SHT30;63523;51.880;12.630;2023-12-20T12:59:19;7.39;76.71
74968;SHT30;63523;51.880;12.630;2023-12-20T13:01:44;7.36;76.76
74968;SHT30;63523;51.880;12.630;2023-12-20T13:04:09;7.43;76.30
74968;SHT30;63523;51.880;12.630;2023-12-20T13:06:39;7.53;75.86
74968;SHT30;63523;51.880;12.630;2023-12-20T13:09:05;7.45;76.40
74968;SHT30;63523;51.880;12.630;2023-12-20T13:11:31;7.45;76.11
74968;SHT30;63523;51.880;12.630;2023-12-20T13:13:57;7.59;75.27
74968;SHT30;63523;51.880;12.630;2023-12-20T13:16:23;7.52;75.88
74968;SHT30;63523;51.880;12.630;2023-12-20T13:18:49;7.51;76.69
74968;SHT30;63523;51.880;12.630;2023-12-20T13:21:14;7.51;75.99
74968;SHT30;63523;51.880;12.630;2023-12-20T13:23:39;7.39;77.07
74968;SHT30;63523;51.880;12.630;2023-12-20T13:26:04;7.56;76.54
74968;SHT30;63523;51.880;12.630;2023-12-20T13:28:30;7.70;75.98
74968;SHT30;63523;51.880;12.630;2023-12-20T13:30:56;7.62;75.83
74968;SHT30;63523;51.880;12.630;2023-12-20T13:33:21;7.60;75.45
74968;SHT30;63523;51.880;12.630;2023-12-20T13:35:46;7.71;75.82
74968;SHT30;63523;51.880;12.630;2023-12-20T13:38:13;7.70;76.09
74968;SHT30;63523;51.880;12.630;2023-12-20T13:40:38;7.69;76.26
74968;SHT30;63523;51.880;12.630;2023-12-20T13:43:03;7.71;76.56
74968;SHT30;63523;51.880;12.630;2023-12-20T13:45:29;7.66;76.44
74968;SHT30;63523;51.880;12.630;2023-12-20T13:47:54;7.66;76.42
74968;SHT30;63523;51.880;12.630;2023-12-20T13:50:19;7.56;76.49
74968;SHT30;63523;51.880;12.630;2023-12-20T13:52:45;7.46;77.25
74968;SHT30;63523;51.880;12.630;2023-12-20T13:55:11;7.41;77.34
74968;SHT30;63523;51.880;12.630;2023-12-20T13:57:36;7.42;77.66
74968;SHT30;63523;51.880;12.630;2023-12-20T14:00:06;7.39;77.23
74968;SHT30;63523;51.880;12.630;2023-12-20T14:02:38;7.49;77.06
74968;SHT30;63523;51.880;12.630;2023-12-20T14:05:03;7.55;76.28
74968;SHT30;63523;51.880;12.630;2023-12-20T14:07:29;7.52;76.24
74968;SHT30;63523;51.880;12.630;2023-12-20T14:09:54;7.42;76.39
74968;SHT30;63523;51.880;12.630;2023-12-20T14:12:19;7.25;77.35
74968;SHT30;63523;51.880;12.630;2023-12-20T14:14:45;7.39;77.39
74968;SHT30;63523;51.880;12.630;2023-12-20T14:17:10;7.49;76.54
74968;SHT30;63523;51.880;12.630;2023-12-20T14:19:36;7.51;77.13
74968;SHT30;63523;51.880;12.630;2023-12-20T14:22:02;7.49;76.73
74968;SHT30;63523;51.880;12.630;2023-12-20T14:24:28;7.45;76.46
74968;SHT30;63523;51.880;12.630;2023-12-20T14:26:53;7.29;77.99
74968;SHT30;63523;51.880;12.630;2023-12-20T14:29:19;7.26;77.35
74968;SHT30;63523;51.880;12.630;2023-12-20T14:31:44;7.24;77.98
74968;SHT30;63523;51.880;12.630;2023-12-20T14:34:10;7.21;78.25
74968;SHT30;63523;51.880;12.630;2023-12-20T14:36:35;7.25;78.30
74968;SHT30;63523;51.880;12.630;2023-12-20T14:39:01;7.29;78.31
74968;SHT30;63523;51.880;12.630;2023-12-20T14:41:28;7.39;77.67
74968;SHT30;63523;51.880;12.630;2023-12-20T14:43:53;7.32;77.90
74968;SHT30;63523;51.880;12.630;2023-12-20T14:46:19;7.28;77.47
74968;SHT30;63523;51.880;12.630;2023-12-20T14:48:44;7.16;77.70
74968;SHT30;63523;51.880;12.630;2023-12-20T14:51:09;7.14;78.03
74968;SHT30;63523;51.880;12.630;2023-12-20T14:53:36;7.11;77.83
74968;SHT30;63523;51.880;12.630;2023-12-20T14:56:03;7.12;77.75
74968;SHT30;63523;51.880;12.630;2023-12-20T14:58:29;7.24;77.81
74968;SHT30;63523;51.880;12.630;2023-12-20T15:00:55;7.16;77.50
74968;SHT30;63523;51.880;12.630;2023-12-20T15:03:21;7.19;76.44
74968;SHT30;63523;51.880;12.630;2023-12-20T15:05:46;7.12;76.70
74968;SHT30;63523;51.880;12.630;2023-12-20T15:08:13;7.16;76.71
74968;SHT30;63523;51.880;12.630;2023-12-20T15:10:39;7.01;77.01
74968;SHT30;63523;51.880;12.630;2023-12-20T15:13:04;6.93;76.79
74968;SHT30;63523;51.880;12.630;2023-12-20T15:15:29;6.88;76.34
74968;SHT30;63523;51.880;12.630;2023-12-20T15:17:54;6.86;76.32
74968;SHT30;63523;51.880;12.630;2023-12-20T15:20:20;6.81;76.33
74968;SHT30;63523;51.880;12.630;2023-12-20T15:22:45;6.75;76.97
74968;SHT30;63523;51.880;12.630;2023-12-20T15:25:11;6.69;77.30
74968;SHT30;63523;51.880;12.630;2023-12-20T15:27:37;6.62;77.39
74968;SHT30;63523;51.880;12.630;2023-12-20T15:30:04;6.62;77.72